sensor_id;sensor_type;location;lat;lon;timestamp;P1;durP1;ratioP1;P2;durP2;ratioP2
59474;SDS011;45288;51.136;16.928;2022-12-07T00:01:38;13.32;;;8.45;;
59474;SDS011;45288;51.136;16.928;2022-12-07T00:04:04;12.13;;;8.63;;
59474;SDS011;45288;51.136;16.928;2022-12-07T00:06:35;12.15;;;8.60;;
59474;SDS011;45288;51.136;16.928;2022-12-07T00:09:01;13.05;;;8.77;;
59474;SDS011;45288;51.136;16.928;2022-12-07T00:11:26;12.68;;;8.85;;
59474;SDS011;45288;51.136;16.928;2022-12-07T00:13:53;10.07;;;8.00;;
59474;SDS011;45288;51.136;16.928;2022-12-07T00:16:20;10.68;;;8.27;;
59474;SDS011;45288;51.136;16.928;2022-12-07T00:18:46;10.85;;;8.10;;
59474;SDS011;45288;51.136;16.928;2022-12-07T00:21:13;9.90;;;7.40;;
59474;SDS011;45288;51.136;16.928;2022-12-07T00:23:39;9.85;;;7.32;;
59474;SDS011;45288;51.136;16.928;2022-12-07T00:28:31;9.73;;;7.38;;
59474;SDS011;45288;51.136;16.928;2022-12-07T00:31:03;10.10;;;7.07;;
59474;SDS011;45288;51.136;16.928;2022-12-07T00:33:29;9.80;;;6.90;;
59474;SDS011;45288;51.136;16.928;2022-12-07T00:35:56;8.18;;;6.30;;
59474;SDS011;45288;51.136;16.928;2022-12-07T00:38:22;8.57;;;6.03;;
59474;SDS011;45288;51.136;16.928;2022-12-07T00:41:01;8.63;;;5.90;;
59474;SDS011;45288;51.136;16.928;2022-12-07T00:43:27;8.70;;;6.65;;
59474;SDS011;45288;51.136;16.928;2022-12-07T00:45:53;6.53;;;5.30;;
59474;SDS011;45288;51.136;16.928;2022-12-07T00:48:19;8.35;;;6.13;;
59474;SDS011;45288;51.136;16.928;2022-12-07T00:50:45;7.50;;;5.43;;
59474;SDS011;45288;51.136;16.928;2022-12-07T00:53:10;7.00;;;4.67;;
59474;SDS011;45288;51.136;16.928;2022-12-07T00:55:36;5.40;;;4.43;;
59474;SDS011;45288;51.136;16.928;2022-12-07T00:58:02;5.50;;;4.10;;
59474;SDS011;45288;51.136;16.928;2022-12-07T01:00:28;5.67;;;4.20;;
59474;SDS011;45288;51.136;16.928;2022-12-07T01:02:53;5.15;;;4.07;;
59474;SDS011;45288;51.136;16.928;2022-12-07T01:05:19;4.90;;;4.00;;
59474;SDS011;45288;51.136;16.928;2022-12-07T01:07:45;4.40;;;3.60;;
59474;SDS011;45288;51.136;16.928;2022-12-07T01:10:12;4.65;;;3.72;;
59474;SDS011;45288;51.136;16.928;2022-12-07T01:12:38;4.87;;;3.60;;
59474;SDS011;45288;51.136;16.928;2022-12-07T01:15:04;4.77;;;3.80;;
59474;SDS011;45288;51.136;16.928;2022-12-07T01:17:30;5.47;;;3.97;;
59474;SDS011;45288;51.136;16.928;2022-12-07T01:19:56;4.57;;;3.50;;
59474;SDS011;45288;51.136;16.928;2022-12-07T01:22:21;4.57;;;3.70;;
59474;SDS011;45288;51.136;16.928;2022-12-07T01:24:47;4.53;;;3.50;;
59474;SDS011;45288;51.136;16.928;2022-12-07T01:27:13;4.25;;;3.65;;
59474;SDS011;45288;51.136;16.928;2022-12-07T01:29:38;5.20;;;4.00;;
59474;SDS011;45288;51.136;16.928;2022-12-07T01:32:04;5.60;;;3.97;;
59474;SDS011;45288;51.136;16.928;2022-12-07T01:34:30;5.57;;;4.10;;
59474;SDS011;45288;51.136;16.928;2022-12-07T01:36:56;5.05;;;3.47;;
59474;SDS011;45288;51.136;16.928;2022-12-07T01:39:22;5.20;;;4.07;;
59474;SDS011;45288;51.136;16.928;2022-12-07T01:41:47;6.10;;;4.13;;
59474;SDS011;45288;51.136;16.928;2022-12-07T01:44:20;4.88;;;3.80;;
59474;SDS011;45288;51.136;16.928;2022-12-07T01:46:56;4.30;;;3.17;;
59474;SDS011;45288;51.136;16.928;2022-12-07T01:51:47;4.80;;;3.57;;
59474;SDS011;45288;51.136;16.928;2022-12-07T01:54:14;4.40;;;3.22;;
59474;SDS011;45288;51.136;16.928;2022-12-07T01:56:41;4.88;;;3.50;;
59474;SDS011;45288;51.136;16.928;2022-12-07T01:59:09;5.93;;;4.18;;
59474;SDS011;45288;51.136;16.928;2022-12-07T02:01:35;5.55;;;3.80;;
59474;SDS011;45288;51.136;16.928;2022-12-07T02:04:19;5.30;;;3.90;;
59474;SDS011;45288;51.136;16.928;2022-12-07T02:06:46;5.30;;;3.80;;
59474;SDS011;45288;51.136;16.928;2022-12-07T02:09:12;4.87;;;3.80;;
59474;SDS011;45288;51.136;16.928;2022-12-07T02:11:38;4.77;;;3.80;;
59474;SDS011;45288;51.136;16.928;2022-12-07T02:14:04;5.35;;;3.78;;
59474;SDS011;45288;51.136;16.928;2022-12-07T02:19:03;4.60;;;3.33;;
59474;SDS011;45288;51.136;16.928;2022-12-07T02:26:55;4.60;;;3.30;;
59474;SDS011;45288;51.136;16.928;2022-12-07T02:29:32;4.90;;;3.40;;
59474;SDS011;45288;51.136;16.928;2022-12-07T02:32:04;4.55;;;3.40;;
59474;SDS011;45288;51.136;16.928;2022-12-07T02:34:34;4.40;;;3.05;;
59474;SDS011;45288;51.136;16.928;2022-12-07T02:37:04;4.43;;;3.42;;
59474;SDS011;45288;51.136;16.928;2022-12-07T02:39:51;5.10;;;3.25;;
59474;SDS011;45288;51.136;16.928;2022-12-07T02:42:20;4.10;;;3.28;;
59474;SDS011;45288;51.136;16.928;2022-12-07T02:44:48;4.07;;;3.65;;
59474;SDS011;45288;51.136;16.928;2022-12-07T02:47:15;5.32;;;3.70;;
59474;SDS011;45288;51.136;16.928;2022-12-07T02:49:42;4.60;;;3.60;;
59474;SDS011;45288;51.136;16.928;2022-12-07T02:52:08;4.07;;;3.10;;
59474;SDS011;45288;51.136;16.928;2022-12-07T02:54:33;5.23;;;3.63;;
59474;SDS011;45288;51.136;16.928;2022-12-07T03:09:50;5.55;;;3.88;;
59474;SDS011;45288;51.136;16.928;2022-12-07T03:12:19;5.47;;;4.20;;
59474;SDS011;45288;51.136;16.928;2022-12-07T03:14:47;5.47;;;4.27;;
59474;SDS011;45288;51.136;16.928;2022-12-07T03:17:16;5.27;;;4.00;;
59474;SDS011;45288;51.136;16.928;2022-12-07T03:19:43;5.80;;;4.10;;
59474;SDS011;45288;51.136;16.928;2022-12-07T03:22:10;5.70;;;4.30;;
59474;SDS011;45288;51.136;16.928;2022-12-07T03:24:38;5.38;;;4.30;;
59474;SDS011;45288;51.136;16.928;2022-12-07T03:27:13;6.07;;;5.00;;
59474;SDS011;45288;51.136;16.928;2022-12-07T03:29:43;6.50;;;4.60;;
59474;SDS011;45288;51.136;16.928;2022-12-07T03:32:14;5.13;;;4.27;;
59474;SDS011;45288;51.136;16.928;2022-12-07T03:34:44;6.55;;;4.18;;
59474;SDS011;45288;51.136;16.928;2022-12-07T03:37:20;6.95;;;4.50;;
59474;SDS011;45288;51.136;16.928;2022-12-07T03:42:22;5.88;;;4.30;;
59474;SDS011;45288;51.136;16.928;2022-12-07T03:44:48;6.33;;;4.53;;
59474;SDS011;45288;51.136;16.928;2022-12-07T03:49:50;5.57;;;4.30;;
59474;SDS011;45288;51.136;16.928;2022-12-07T03:55:28;7.03;;;5.50;;
59474;SDS011;45288;51.136;16.928;2022-12-07T03:57:34;6.57;;;5.25;;
59474;SDS011;45288;51.136;16.928;2022-12-07T04:00:00;6.75;;;5.28;;
59474;SDS011;45288;51.136;16.928;2022-12-07T04:02:27;6.20;;;4.75;;
59474;SDS011;45288;51.136;16.928;2022-12-07T04:04:53;6.40;;;4.72;;
59474;SDS011;45288;51.136;16.928;2022-12-07T04:07:18;5.88;;;4.50;;
59474;SDS011;45288;51.136;16.928;2022-12-07T04:09:44;5.03;;;4.03;;
59474;SDS011;45288;51.136;16.928;2022-12-07T04:12:09;5.73;;;4.03;;
59474;SDS011;45288;51.136;16.928;2022-12-07T04:14:35;5.60;;;4.05;;
59474;SDS011;45288;51.136;16.928;2022-12-07T04:17:01;6.00;;;4.67;;
59474;SDS011;45288;51.136;16.928;2022-12-07T04:19:27;7.75;;;4.93;;
59474;SDS011;45288;51.136;16.928;2022-12-07T04:21:54;6.78;;;4.80;;
59474;SDS011;45288;51.136;16.928;2022-12-07T04:24:20;7.63;;;5.15;;
59474;SDS011;45288;51.136;16.928;2022-12-07T04:26:45;8.05;;;5.40;;
59474;SDS011;45288;51.136;16.928;2022-12-07T04:29:11;6.40;;;4.70;;
59474;SDS011;45288;51.136;16.928;2022-12-07T04:31:37;7.45;;;4.78;;
59474;SDS011;45288;51.136;16.928;2022-12-07T04:34:03;8.95;;;5.57;;
59474;SDS011;45288;51.136;16.928;2022-12-07T04:36:29;7.50;;;5.25;;
59474;SDS011;45288;51.136;16.928;2022-12-07T04:38:55;6.28;;;4.72;;
59474;SDS011;45288;51.136;16.928;2022-12-07T04:41:21;6.05;;;4.75;;
59474;SDS011;45288;51.136;16.928;2022-12-07T04:43:55;7.47;;;5.13;;
59474;SDS011;45288;51.136;16.928;2022-12-07T04:46:22;7.80;;;5.45;;
59474;SDS011;45288;51.136;16.928;2022-12-07T04:48:48;8.88;;;5.40;;
59474;SDS011;45288;51.136;16.928;2022-12-07T04:51:14;7.93;;;5.10;;
59474;SDS011;45288;51.136;16.928;2022-12-07T04:53:41;6.43;;;4.82;;
59474;SDS011;45288;51.136;16.928;2022-12-07T04:56:06;8.40;;;5.30;;
59474;SDS011;45288;51.136;16.928;2022-12-07T04:58:32;8.60;;;5.53;;
59474;SDS011;45288;51.136;16.928;2022-12-07T05:00:58;8.35;;;5.60;;
59474;SDS011;45288;51.136;16.928;2022-12-07T05:03:24;9.10;;;6.50;;
59474;SDS011;45288;51.136;16.928;2022-12-07T05:05:50;9.43;;;6.43;;
59474;SDS011;45288;51.136;16.928;2022-12-07T05:08:15;9.30;;;5.73;;
59474;SDS011;45288;51.136;16.928;2022-12-07T05:10:41;9.32;;;6.72;;
59474;SDS011;45288;51.136;16.928;2022-12-07T05:13:06;10.40;;;7.00;;
59474;SDS011;45288;51.136;16.928;2022-12-07T05:15:32;9.35;;;6.47;;
59474;SDS011;45288;51.136;16.928;2022-12-07T05:17:57;10.87;;;7.17;;
59474;SDS011;45288;51.136;16.928;2022-12-07T05:20:23;14.25;;;8.45;;
59474;SDS011;45288;51.136;16.928;2022-12-07T05:22:49;10.75;;;7.50;;
59474;SDS011;45288;51.136;16.928;2022-12-07T05:25:15;15.93;;;8.50;;
59474;SDS011;45288;51.136;16.928;2022-12-07T05:27:40;12.43;;;8.38;;
59474;SDS011;45288;51.136;16.928;2022-12-07T05:30:06;15.15;;;9.48;;
59474;SDS011;45288;51.136;16.928;2022-12-07T05:32:32;17.13;;;9.77;;
59474;SDS011;45288;51.136;16.928;2022-12-07T05:34:58;16.63;;;9.03;;
59474;SDS011;45288;51.136;16.928;2022-12-07T05:37:23;15.80;;;9.35;;
59474;SDS011;45288;51.136;16.928;2022-12-07T05:39:49;14.73;;;9.13;;
59474;SDS011;45288;51.136;16.928;2022-12-07T05:42:14;15.18;;;8.85;;
59474;SDS011;45288;51.136;16.928;2022-12-07T05:44:41;16.07;;;9.80;;
59474;SDS011;45288;51.136;16.928;2022-12-07T05:47:07;13.88;;;8.73;;
59474;SDS011;45288;51.136;16.928;2022-12-07T05:49:33;14.95;;;9.73;;
59474;SDS011;45288;51.136;16.928;2022-12-07T05:51:58;15.95;;;9.70;;
59474;SDS011;45288;51.136;16.928;2022-12-07T05:54:24;16.50;;;9.83;;
59474;SDS011;45288;51.136;16.928;2022-12-07T05:56:50;16.52;;;10.05;;
59474;SDS011;45288;51.136;16.928;2022-12-07T05:59:15;17.57;;;10.73;;
59474;SDS011;45288;51.136;16.928;2022-12-07T06:01:53;19.50;;;11.52;;
59474;SDS011;45288;51.136;16.928;2022-12-07T06:04:19;18.80;;;10.48;;
59474;SDS011;45288;51.136;16.928;2022-12-07T06:06:45;20.10;;;12.07;;
59474;SDS011;45288;51.136;16.928;2022-12-07T06:09:11;19.88;;;12.10;;
59474;SDS011;45288;51.136;16.928;2022-12-07T06:11:38;22.57;;;12.80;;
59474;SDS011;45288;51.136;16.928;2022-12-07T06:14:22;20.17;;;11.73;;
59474;SDS011;45288;51.136;16.928;2022-12-07T06:16:48;19.52;;;11.45;;
59474;SDS011;45288;51.136;16.928;2022-12-07T06:19:13;20.10;;;12.00;;
59474;SDS011;45288;51.136;16.928;2022-12-07T06:21:39;19.05;;;12.30;;
59474;SDS011;45288;51.136;16.928;2022-12-07T06:24:05;20.27;;;12.27;;
59474;SDS011;45288;51.136;16.928;2022-12-07T06:26:31;20.15;;;12.23;;
59474;SDS011;45288;51.136;16.928;2022-12-07T06:28:56;18.97;;;12.10;;
59474;SDS011;45288;51.136;16.928;2022-12-07T06:31:22;19.95;;;11.63;;
59474;SDS011;45288;51.136;16.928;2022-12-07T06:33:48;18.33;;;11.48;;
59474;SDS011;45288;51.136;16.928;2022-12-07T06:36:13;17.80;;;11.17;;
59474;SDS011;45288;51.136;16.928;2022-12-07T06:38:39;21.23;;;12.10;;
59474;SDS011;45288;51.136;16.928;2022-12-07T06:41:05;17.23;;;10.23;;
59474;SDS011;45288;51.136;16.928;2022-12-07T06:43:30;21.13;;;12.82;;
59474;SDS011;45288;51.136;16.928;2022-12-07T06:45:56;24.00;;;13.27;;
59474;SDS011;45288;51.136;16.928;2022-12-07T06:48:21;22.35;;;12.75;;
59474;SDS011;45288;51.136;16.928;2022-12-07T06:50:47;22.25;;;13.65;;
59474;SDS011;45288;51.136;16.928;2022-12-07T06:53:13;22.30;;;12.50;;
59474;SDS011;45288;51.136;16.928;2022-12-07T06:55:38;20.92;;;12.77;;
59474;SDS011;45288;51.136;16.928;2022-12-07T06:58:04;21.63;;;12.93;;
59474;SDS011;45288;51.136;16.928;2022-12-07T07:00:30;22.60;;;12.80;;
59474;SDS011;45288;51.136;16.928;2022-12-07T07:02:56;21.55;;;13.07;;
59474;SDS011;45288;51.136;16.928;2022-12-07T07:05:21;20.10;;;12.10;;
59474;SDS011;45288;51.136;16.928;2022-12-07T07:07:48;19.97;;;12.17;;
59474;SDS011;45288;51.136;16.928;2022-12-07T07:10:13;16.73;;;10.73;;
59474;SDS011;45288;51.136;16.928;2022-12-07T07:12:39;16.07;;;10.60;;
59474;SDS011;45288;51.136;16.928;2022-12-07T07:15:05;17.55;;;10.70;;
59474;SDS011;45288;51.136;16.928;2022-12-07T07:17:31;18.42;;;11.20;;
59474;SDS011;45288;51.136;16.928;2022-12-07T07:19:56;40.10;;;26.13;;
59474;SDS011;45288;51.136;16.928;2022-12-07T07:22:22;18.02;;;11.27;;
59474;SDS011;45288;51.136;16.928;2022-12-07T07:24:50;17.97;;;11.30;;
59474;SDS011;45288;51.136;16.928;2022-12-07T07:27:16;18.30;;;11.55;;
59474;SDS011;45288;51.136;16.928;2022-12-07T07:29:41;19.87;;;11.93;;
59474;SDS011;45288;51.136;16.928;2022-12-07T07:32:07;17.33;;;10.77;;
59474;SDS011;45288;51.136;16.928;2022-12-07T07:34:33;16.52;;;9.93;;
59474;SDS011;45288;51.136;16.928;2022-12-07T07:36:58;18.13;;;11.40;;
59474;SDS011;45288;51.136;16.928;2022-12-07T07:39:24;17.70;;;11.88;;
59474;SDS011;45288;51.136;16.928;2022-12-07T07:41:49;18.53;;;12.33;;
59474;SDS011;45288;51.136;16.928;2022-12-07T07:44:23;21.48;;;12.43;;
59474;SDS011;45288;51.136;16.928;2022-12-07T07:46:49;20.00;;;12.98;;
59474;SDS011;45288;51.136;16.928;2022-12-07T07:49:14;19.23;;;11.97;;
59474;SDS011;45288;51.136;16.928;2022-12-07T07:51:40;17.60;;;11.45;;
59474;SDS011;45288;51.136;16.928;2022-12-07T07:54:06;17.13;;;11.02;;
59474;SDS011;45288;51.136;16.928;2022-12-07T07:56:31;18.47;;;11.83;;
59474;SDS011;45288;51.136;16.928;2022-12-07T07:58:57;19.55;;;11.90;;
59474;SDS011;45288;51.136;16.928;2022-12-07T08:01:23;17.63;;;10.63;;
59474;SDS011;45288;51.136;16.928;2022-12-07T08:03:49;18.92;;;11.48;;
59474;SDS011;45288;51.136;16.928;2022-12-07T08:06:15;18.65;;;11.20;;
59474;SDS011;45288;51.136;16.928;2022-12-07T08:08:40;18.13;;;11.27;;
59474;SDS011;45288;51.136;16.928;2022-12-07T08:11:07;19.00;;;11.23;;
59474;SDS011;45288;51.136;16.928;2022-12-07T08:13:33;18.30;;;11.52;;
59474;SDS011;45288;51.136;16.928;2022-12-07T08:16:02;18.77;;;12.17;;
59474;SDS011;45288;51.136;16.928;2022-12-07T08:18:28;18.55;;;11.77;;
59474;SDS011;45288;51.136;16.928;2022-12-07T08:21:03;20.92;;;13.27;;
59474;SDS011;45288;51.136;16.928;2022-12-07T08:23:29;25.80;;;14.35;;
59474;SDS011;45288;51.136;16.928;2022-12-07T08:25:59;25.23;;;14.45;;
59474;SDS011;45288;51.136;16.928;2022-12-07T08:28:25;24.10;;;14.43;;
59474;SDS011;45288;51.136;16.928;2022-12-07T08:30:50;22.75;;;14.10;;
59474;SDS011;45288;51.136;16.928;2022-12-07T08:33:16;22.23;;;13.60;;
59474;SDS011;45288;51.136;16.928;2022-12-07T08:35:42;19.13;;;12.63;;
59474;SDS011;45288;51.136;16.928;2022-12-07T08:38:08;18.65;;;11.40;;
59474;SDS011;45288;51.136;16.928;2022-12-07T08:40:34;17.73;;;11.13;;
59474;SDS011;45288;51.136;16.928;2022-12-07T08:43:00;18.80;;;11.55;;
59474;SDS011;45288;51.136;16.928;2022-12-07T08:45:26;20.95;;;11.70;;
59474;SDS011;45288;51.136;16.928;2022-12-07T08:50:18;20.60;;;12.33;;
59474;SDS011;45288;51.136;16.928;2022-12-07T08:52:44;21.30;;;12.02;;
59474;SDS011;45288;51.136;16.928;2022-12-07T08:55:13;22.42;;;12.88;;
59474;SDS011;45288;51.136;16.928;2022-12-07T08:57:39;21.58;;;12.45;;
59474;SDS011;45288;51.136;16.928;2022-12-07T09:00:05;19.95;;;11.75;;
59474;SDS011;45288;51.136;16.928;2022-12-07T09:02:31;20.65;;;12.30;;
59474;SDS011;45288;51.136;16.928;2022-12-07T09:04:57;22.58;;;12.93;;
59474;SDS011;45288;51.136;16.928;2022-12-07T09:07:23;17.13;;;11.07;;
59474;SDS011;45288;51.136;16.928;2022-12-07T09:09:49;19.58;;;11.93;;
59474;SDS011;45288;51.136;16.928;2022-12-07T09:12:14;19.65;;;11.60;;
59474;SDS011;45288;51.136;16.928;2022-12-07T09:14:40;18.20;;;11.13;;
59474;SDS011;45288;51.136;16.928;2022-12-07T09:17:06;18.15;;;10.88;;
59474;SDS011;45288;51.136;16.928;2022-12-07T09:19:32;18.10;;;10.60;;
59474;SDS011;45288;51.136;16.928;2022-12-07T09:21:58;17.10;;;10.37;;
59474;SDS011;45288;51.136;16.928;2022-12-07T09:24:24;17.00;;;9.82;;
59474;SDS011;45288;51.136;16.928;2022-12-07T09:26:49;15.37;;;8.70;;
59474;SDS011;45288;51.136;16.928;2022-12-07T09:29:15;11.67;;;7.40;;
59474;SDS011;45288;51.136;16.928;2022-12-07T09:31:41;11.43;;;7.40;;
59474;SDS011;45288;51.136;16.928;2022-12-07T09:34:06;10.20;;;7.10;;
59474;SDS011;45288;51.136;16.928;2022-12-07T09:36:32;10.25;;;7.13;;
59474;SDS011;45288;51.136;16.928;2022-12-07T09:38:58;9.93;;;6.60;;
59474;SDS011;45288;51.136;16.928;2022-12-07T09:41:24;9.88;;;6.22;;
59474;SDS011;45288;51.136;16.928;2022-12-07T09:43:51;9.45;;;6.30;;
59474;SDS011;45288;51.136;16.928;2022-12-07T09:46:17;9.83;;;6.43;;
59474;SDS011;45288;51.136;16.928;2022-12-07T09:48:44;10.50;;;6.47;;
59474;SDS011;45288;51.136;16.928;2022-12-07T09:51:20;11.30;;;6.63;;
59474;SDS011;45288;51.136;16.928;2022-12-07T09:53:47;10.10;;;5.82;;
59474;SDS011;45288;51.136;16.928;2022-12-07T09:56:14;11.32;;;6.75;;
59474;SDS011;45288;51.136;16.928;2022-12-07T09:58:40;11.77;;;6.95;;
59474;SDS011;45288;51.136;16.928;2022-12-07T10:03:31;11.63;;;7.10;;
59474;SDS011;45288;51.136;16.928;2022-12-07T10:05:57;10.40;;;6.40;;
59474;SDS011;45288;51.136;16.928;2022-12-07T10:08:24;11.98;;;6.97;;
59474;SDS011;45288;51.136;16.928;2022-12-07T10:10:51;11.85;;;6.45;;
59474;SDS011;45288;51.136;16.928;2022-12-07T10:13:21;11.32;;;6.60;;
59474;SDS011;45288;51.136;16.928;2022-12-07T10:15:54;10.25;;;6.28;;
59474;SDS011;45288;51.136;16.928;2022-12-07T10:18:34;10.50;;;5.53;;
59474;SDS011;45288;51.136;16.928;2022-12-07T10:23:30;15.13;;;8.48;;
59474;SDS011;45288;51.136;16.928;2022-12-07T10:25:55;11.47;;;7.17;;
59474;SDS011;45288;51.136;16.928;2022-12-07T10:28:21;14.25;;;7.70;;
59474;SDS011;45288;51.136;16.928;2022-12-07T10:30:48;10.38;;;5.93;;
59474;SDS011;45288;51.136;16.928;2022-12-07T10:33:57;11.88;;;6.55;;
59474;SDS011;45288;51.136;16.928;2022-12-07T10:36:38;9.80;;;5.70;;
59474;SDS011;45288;51.136;16.928;2022-12-07T10:39:00;8.50;;;5.80;;
59474;SDS011;45288;51.136;16.928;2022-12-07T10:41:26;9.90;;;6.40;;
59474;SDS011;45288;51.136;16.928;2022-12-07T10:43:52;8.95;;;5.75;;
59474;SDS011;45288;51.136;16.928;2022-12-07T10:53:52;9.63;;;5.43;;
59474;SDS011;45288;51.136;16.928;2022-12-07T11:01:25;5.90;;;4.28;;
59474;SDS011;45288;51.136;16.928;2022-12-07T11:11:41;7.10;;;4.93;;
59474;SDS011;45288;51.136;16.928;2022-12-07T11:14:21;7.10;;;4.70;;
59474;SDS011;45288;51.136;16.928;2022-12-07T11:19:34;9.13;;;5.03;;
59474;SDS011;45288;51.136;16.928;2022-12-07T11:24:40;8.57;;;5.40;;
59474;SDS011;45288;51.136;16.928;2022-12-07T11:32:49;8.57;;;4.82;;
59474;SDS011;45288;51.136;16.928;2022-12-07T11:37:30;20.27;;;7.03;;
59474;SDS011;45288;51.136;16.928;2022-12-07T11:40:02;9.30;;;5.05;;
59474;SDS011;45288;51.136;16.928;2022-12-07T11:42:34;12.80;;;5.47;;
59474;SDS011;45288;51.136;16.928;2022-12-07T11:48:04;9.15;;;4.95;;
59474;SDS011;45288;51.136;16.928;2022-12-07T11:50:42;9.57;;;5.32;;
59474;SDS011;45288;51.136;16.928;2022-12-07T11:53:12;8.88;;;5.40;;
59474;SDS011;45288;51.136;16.928;2022-12-07T11:58:19;8.63;;;5.30;;
59474;SDS011;45288;51.136;16.928;2022-12-07T12:00:48;9.38;;;5.90;;
59474;SDS011;45288;51.136;16.928;2022-12-07T12:03:20;10.35;;;5.28;;
59474;SDS011;45288;51.136;16.928;2022-12-07T12:05:49;12.30;;;6.10;;
59474;SDS011;45288;51.136;16.928;2022-12-07T12:08:20;11.68;;;5.70;;
59474;SDS011;45288;51.136;16.928;2022-12-07T12:13:20;10.17;;;5.57;;
59474;SDS011;45288;51.136;16.928;2022-12-07T12:20:51;10.75;;;6.00;;
59474;SDS011;45288;51.136;16.928;2022-12-07T12:23:20;10.57;;;5.93;;
59474;SDS011;45288;51.136;16.928;2022-12-07T12:25:49;9.30;;;5.50;;
59474;SDS011;45288;51.136;16.928;2022-12-07T12:31:07;13.60;;;7.82;;
59474;SDS011;45288;51.136;16.928;2022-12-07T12:33:34;23.77;;;14.80;;
59474;SDS011;45288;51.136;16.928;2022-12-07T12:38:48;12.17;;;6.80;;
59474;SDS011;45288;51.136;16.928;2022-12-07T12:43:58;9.10;;;5.82;;
59474;SDS011;45288;51.136;16.928;2022-12-07T12:51:43;11.35;;;6.18;;
59474;SDS011;45288;51.136;16.928;2022-12-07T12:54:14;10.75;;;6.38;;
59474;SDS011;45288;51.136;16.928;2022-12-07T12:56:51;12.10;;;6.72;;
59474;SDS011;45288;51.136;16.928;2022-12-07T12:59:23;10.07;;;5.70;;
59474;SDS011;45288;51.136;16.928;2022-12-07T13:01:49;12.73;;;6.93;;
59474;SDS011;45288;51.136;16.928;2022-12-07T13:06:44;10.45;;;6.47;;
59474;SDS011;45288;51.136;16.928;2022-12-07T13:09:18;11.50;;;6.50;;
59474;SDS011;45288;51.136;16.928;2022-12-07T13:11:46;12.88;;;6.88;;
59474;SDS011;45288;51.136;16.928;2022-12-07T13:16:56;11.17;;;6.87;;
59474;SDS011;45288;51.136;16.928;2022-12-07T13:25:21;10.80;;;7.00;;
59474;SDS011;45288;51.136;16.928;2022-12-07T13:28:32;12.47;;;7.37;;
59474;SDS011;45288;51.136;16.928;2022-12-07T13:30:43;13.02;;;7.20;;
59474;SDS011;45288;51.136;16.928;2022-12-07T13:33:10;11.55;;;6.75;;
59474;SDS011;45288;51.136;16.928;2022-12-07T13:35:37;11.97;;;7.07;;
59474;SDS011;45288;51.136;16.928;2022-12-07T13:38:13;10.77;;;6.95;;
59474;SDS011;45288;51.136;16.928;2022-12-07T13:40:40;12.57;;;7.30;;
59474;SDS011;45288;51.136;16.928;2022-12-07T13:43:19;11.55;;;7.50;;
59474;SDS011;45288;51.136;16.928;2022-12-07T13:45:44;12.68;;;7.30;;
59474;SDS011;45288;51.136;16.928;2022-12-07T13:48:33;12.73;;;7.50;;
59474;SDS011;45288;51.136;16.928;2022-12-07T13:51:01;10.60;;;6.30;;
59474;SDS011;45288;51.136;16.928;2022-12-07T13:53:27;12.18;;;6.65;;
59474;SDS011;45288;51.136;16.928;2022-12-07T13:55:59;11.43;;;5.88;;
59474;SDS011;45288;51.136;16.928;2022-12-07T13:58:26;11.13;;;6.30;;
59474;SDS011;45288;51.136;16.928;2022-12-07T14:00:52;12.05;;;6.40;;
59474;SDS011;45288;51.136;16.928;2022-12-07T14:05:43;11.53;;;6.90;;
59474;SDS011;45288;51.136;16.928;2022-12-07T14:10:36;11.07;;;7.40;;
59474;SDS011;45288;51.136;16.928;2022-12-07T14:13:17;12.05;;;6.40;;
59474;SDS011;45288;51.136;16.928;2022-12-07T14:15:49;12.40;;;6.70;;
59474;SDS011;45288;51.136;16.928;2022-12-07T14:18:25;9.23;;;5.32;;
59474;SDS011;45288;51.136;16.928;2022-12-07T14:21:01;9.77;;;5.97;;
59474;SDS011;45288;51.136;16.928;2022-12-07T14:23:27;8.65;;;5.57;;
59474;SDS011;45288;51.136;16.928;2022-12-07T14:25:53;10.67;;;5.80;;
59474;SDS011;45288;51.136;16.928;2022-12-07T14:30:50;12.30;;;6.32;;
59474;SDS011;45288;51.136;16.928;2022-12-07T14:33:16;10.40;;;6.15;;
59474;SDS011;45288;51.136;16.928;2022-12-07T14:35:42;10.48;;;6.32;;
59474;SDS011;45288;51.136;16.928;2022-12-07T14:38:08;9.57;;;6.23;;
59474;SDS011;45288;51.136;16.928;2022-12-07T14:40:33;11.02;;;6.38;;
59474;SDS011;45288;51.136;16.928;2022-12-07T14:43:03;11.57;;;6.50;;
59474;SDS011;45288;51.136;16.928;2022-12-07T14:45:29;10.52;;;6.20;;
59474;SDS011;45288;51.136;16.928;2022-12-07T14:47:55;10.73;;;6.17;;
59474;SDS011;45288;51.136;16.928;2022-12-07T14:50:21;10.75;;;5.97;;
59474;SDS011;45288;51.136;16.928;2022-12-07T14:52:48;11.32;;;6.50;;
59474;SDS011;45288;51.136;16.928;2022-12-07T14:55:25;11.10;;;6.47;;
59474;SDS011;45288;51.136;16.928;2022-12-07T14:57:51;10.38;;;6.70;;
59474;SDS011;45288;51.136;16.928;2022-12-07T15:00:17;11.77;;;6.67;;
59474;SDS011;45288;51.136;16.928;2022-12-07T15:02:44;11.93;;;6.80;;
59474;SDS011;45288;51.136;16.928;2022-12-07T15:05:10;9.43;;;6.03;;
59474;SDS011;45288;51.136;16.928;2022-12-07T15:07:36;13.20;;;6.87;;
59474;SDS011;45288;51.136;16.928;2022-12-07T15:10:01;10.57;;;6.30;;
59474;SDS011;45288;51.136;16.928;2022-12-07T15:12:27;12.13;;;6.97;;
59474;SDS011;45288;51.136;16.928;2022-12-07T15:14:53;13.93;;;7.73;;
59474;SDS011;45288;51.136;16.928;2022-12-07T15:17:18;14.68;;;7.50;;
59474;SDS011;45288;51.136;16.928;2022-12-07T15:19:44;14.40;;;7.93;;
59474;SDS011;45288;51.136;16.928;2022-12-07T15:22:09;14.10;;;7.87;;
59474;SDS011;45288;51.136;16.928;2022-12-07T15:24:36;12.13;;;8.13;;
59474;SDS011;45288;51.136;16.928;2022-12-07T15:27:02;13.33;;;8.13;;
59474;SDS011;45288;51.136;16.928;2022-12-07T15:29:28;15.57;;;8.77;;
59474;SDS011;45288;51.136;16.928;2022-12-07T15:31:54;15.27;;;9.35;;
59474;SDS011;45288;51.136;16.928;2022-12-07T15:34:19;14.95;;;8.70;;
59474;SDS011;45288;51.136;16.928;2022-12-07T15:36:45;17.83;;;9.77;;
59474;SDS011;45288;51.136;16.928;2022-12-07T15:39:10;16.85;;;9.35;;
59474;SDS011;45288;51.136;16.928;2022-12-07T15:41:36;15.60;;;9.48;;
59474;SDS011;45288;51.136;16.928;2022-12-07T15:44:02;15.77;;;9.80;;
59474;SDS011;45288;51.136;16.928;2022-12-07T15:46:46;14.77;;;9.25;;
59474;SDS011;45288;51.136;16.928;2022-12-07T15:49:13;15.10;;;9.37;;
59474;SDS011;45288;51.136;16.928;2022-12-07T15:51:40;15.73;;;9.10;;
59474;SDS011;45288;51.136;16.928;2022-12-07T15:54:06;15.23;;;8.50;;
59474;SDS011;45288;51.136;16.928;2022-12-07T15:56:31;12.70;;;7.40;;
59474;SDS011;45288;51.136;16.928;2022-12-07T15:58:57;17.27;;;9.27;;
59474;SDS011;45288;51.136;16.928;2022-12-07T16:01:23;12.83;;;7.80;;
59474;SDS011;45288;51.136;16.928;2022-12-07T16:03:49;11.15;;;7.30;;
59474;SDS011;45288;51.136;16.928;2022-12-07T16:06:15;12.83;;;7.63;;
59474;SDS011;45288;51.136;16.928;2022-12-07T16:08:44;15.57;;;8.10;;
59474;SDS011;45288;51.136;16.928;2022-12-07T16:11:10;12.00;;;6.82;;
59474;SDS011;45288;51.136;16.928;2022-12-07T16:13:36;13.98;;;7.70;;
59474;SDS011;45288;51.136;16.928;2022-12-07T16:16:03;13.38;;;7.88;;
59474;SDS011;45288;51.136;16.928;2022-12-07T16:18:29;13.65;;;8.73;;
59474;SDS011;45288;51.136;16.928;2022-12-07T16:20:54;15.13;;;9.53;;
59474;SDS011;45288;51.136;16.928;2022-12-07T16:23:20;16.85;;;9.60;;
59474;SDS011;45288;51.136;16.928;2022-12-07T16:25:46;17.73;;;9.85;;